This is the latest recevied weather packets stored in our database for station/object ZL1CTS-13. If no packets are shown the sender has not sent any weather packets the latest 10 day(s).
| Time | Temp. | Humidity | Pressure | Rain* | Wind** | Luminosity | Snow |
|---|---|---|---|---|---|---|---|
| 1777536604 | 13.89° C | 79% | 1025.2 hPa | 0 mm | - | - | - |
| 1777535405 | 13.89° C | 78% | 1025 hPa | 0 mm | - | - | - |
| 1777534804 | 13.89° C | 78% | 1025.1 hPa | 0 mm | - | - | - |
| 1777534206 | 14.44° C | 77% | 1025 hPa | 0 mm | - | - | - |
| 1777533606 | 13.89° C | 77% | 1024.9 hPa | 0 mm | - | - | - |
| 1777533005 | 13.89° C | 76% | 1024.7 hPa | 0 mm | - | - | - |
| 1777532403 | 14.44° C | 75% | 1024.7 hPa | 0 mm | - | - | - |
| 1777531804 | 14.44° C | 74% | 1024.7 hPa | 0 mm | - | - | - |
| 1777531204 | 15° C | 71% | 1024.7 hPa | 0 mm | - | - | - |
| 1777530004 | 15.56° C | 67% | 1024.3 hPa | 0 mm | - | - | - |
| 1777529404 | 15.56° C | 63% | 1024.2 hPa | 0 mm | - | - | - |
| 1777528804 | 16.11° C | 58% | 1024.1 hPa | 0 mm | - | - | - |
| 1777528205 | 16.67° C | 53% | 1024 hPa | 0 mm | - | - | - |
| 1777527604 | 17.78° C | 49% | 1023.8 hPa | 0 mm | - | - | - |
| 1777527004 | 20° C | 44% | 1023.8 hPa | 0 mm | - | - | - |
| 1777526404 | 22.22° C | 39% | 1023.7 hPa | 0 mm | - | - | - |
| 1777525804 | 23.89° C | 36% | 1023.8 hPa | 0 mm | - | - | - |
| 1777525204 | 24.44° C | 36% | 1023.8 hPa | 0 mm | - | - | - |
| 1777524604 | 24.44° C | 35% | 1023.7 hPa | 0 mm | - | - | - |
| 1777524004 | 25° C | 34% | 1023.6 hPa | 0 mm | - | - | - |
| 1777523404 | 26.11° C | 32% | 1023.7 hPa | 0 mm | - | - | - |
| 1777522804 | 26.11° C | 31% | 1023.7 hPa | 0 mm | - | - | - |
| 1777522204 | 26.11° C | 31% | 1023.7 hPa | 0 mm | - | - | - |
| 1777521604 | 26.11° C | 31% | 1023.5 hPa | 0 mm | - | - | - |
| 1777521004 | 26.11° C | 31% | 1023.5 hPa | 0 mm | - | - | - |
* Rain latest hour (hover to see other rain measurements)
** Current wind speed in m/s (hover to see current wind gust speed)